Flowella, Texas
Current Conditions -  °F | °C
As of 1:35 PM on Thursday 27 Nov 2014 (Local Time) from KBKS Reporting Station
Clear Clear  
Wind Chill: 75°   Ceiling: Unl
Heat Index: 75°   Visibility: 10mi
Dew Point: 45°   Wind: 6mph
Humidity: 34%   Direction: 100°E
Pressure: 30.36"   Gusts: NA
Location:  27.2181°N, 98.2459°W
Report Text: KBKS 271935Z AUTO 10005KT 10SM CLR 24/07 A3036 RMK AO1 T02380070
Loading
Personal Weather Stations






























Interactive Weather Map New forecast layout! Learn more

10-Day Weather Forecast

Advertisements
Track Severe Weather on mobile